ADDS METAR Data INFO
IDs: Format: Raw Decoded Include TAF

Data at: 0624 UTC 15 Dec 2017

KFHU 150558Z AUTO 05003KT 10SM CLR 07/M07 A3016 RMK AO2 SLP177 T00691074 10141 20049 52018
KFHU 150533Z AUTO 00000KT 10SM CLR 06/M09 A3015 RMK AO2 SLP174
KFHU 150458Z AUTO 00000KT 10SM CLR 08/M09 A3013 RMK AO2 SLP170 T00761093
KFHU 150439Z AUTO 00000KT 10SM CLR 07/M10 A3013 RMK AO2 SLP170
KFHU 150358Z AUTO 00000KT 10SM CLR 09/M11 A3011 RMK AO2 SLP163 T00941109
KFHU 150258Z AUTO 00000KT 10SM CLR 09/M10 A3010 RMK AO2 SLP167 T00891098 52027
KFHU 150224Z AUTO 14003KT 10SM CLR 08/M10 A3009 RMK AO2 SLP170
KFHU 150158Z AUTO 24007KT 10SM CLR 10/M10 A3007 RMK AO2 SLP160 T00961097
KFHU 150123Z AUTO 24007KT 10SM CLR 10/M09 A3006 RMK AO2 SLP156
KFHU 150058Z AUTO 25005KT 10SM CLR 11/M09 A3004 RMK AO2 SLP146 T01141095
KFHU 150028Z 36006KT 10SM CLR 13/M09 A3003 RMK AO2A SLP139
KFHU 142358Z COR AUTO 31006KT 9SM CLR 15/M09 A3001 RMK AO2 SLP128 T01481093 10181 20148 53008 COR 0001
KFHU 142338Z AUTO 32008KT 10SM CLR 16/M09 A3000 RMK AO2 SLP121
KFHU 142258Z AUTO 34008KT 10SM CLR 17/M09 A2998 RMK AO2 SLP114 T01671093
KFHU 142158Z 31009G14KT 10SM FEW140 17/M08 A2998 RMK AO2A SLP111 T01691084
KFHU 142058Z AUTO 28007KT 10SM CLR 18/M08 A2998 RMK AO2 SLP114 T01761082 57017
KFHU 141958Z AUTO 29012G18KT 10SM CLR 17/M07 A2999 RMK AO2 SLP108 T01741073
KFHU 141938Z AUTO 28014G19KT 10SM CLR 18/M07 A2999 RMK AO2 WSHFT 35 SLP108
KFHU 141932Z AUTO 29012G18KT 10SM CLR 17/M07 A2999 RMK AO2 SLP111
KFHU 141858Z AUTO 26008G17KT 10SM SCT170 17/M07 A3001 RMK AO2 SLP121 T01741072
KFHU 141824Z AUTO 24010KT 10SM SCT180 18/M08 A3002 RMK AO2 SLP118
KFHU 141758Z AUTO 27009KT 10SM FEW170 17/M07 A3004 RMK AO2 SLP128 T01661067 10172 20057 50004
KFHU 141658Z AUTO 03007KT 10SM FEW180 15/M03 A3004 RMK AO2 SLP132 T01461030
KFHU 141650Z AUTO 01007KT 10SM FEW180 14/M03 A3005 RMK AO2 SLP135
KFHU 141558Z AUTO 07003KT 10SM CLR 12/M03 A3003 RMK AO2 SLP132 T01211033 $
KFHU 141458Z AUTO 00000KT 10SM CLR 07/M04 A3002 RMK AO2 SLP135 T00731036 53002 $
KFHU 141358Z AUTO 00000KT 10SM CLR 06/M04 A3001 RMK AO2 SLP132 T00631036
KFHU 141258Z AUTO 00000KT 10SM CLR 08/M03 A3002 RMK AO2 SLP135 T00751032
KFHU 141158Z AUTO 12004KT 10SM CLR 07/M03 A3002 RMK AO2 SLP128 7//// T00731034 10120 20065 57005
KFHU 141058Z AUTO 00000KT 10SM CLR 07/M03 A3002 RMK AO2 SLP125 T00681034
KFHU 140958Z AUTO 00000KT 10SM CLR 08/M03 A3003 RMK AO2 SLP125 T00781035
KFHU 140858Z AUTO 13003KT 10SM CLR 08/M04 A3003 RMK AO2 SLP125 T00791039 56004
KFHU 140758Z AUTO 25006KT 10SM CLR 11/M05 A3003 RMK AO2 SLP121 T01101051
KFHU 140658Z AUTO 29008KT 10SM CLR 08/M04 A3004 RMK AO2 SLP132 T00791045 402030025
KFHU 140558Z AUTO 25008KT 10SM CLR 11/M05 A3005 RMK AO2 SLP135 T01061050 10162 20099 58002
KFHU 140458Z AUTO 25009KT 10SM CLR 11/M05 A3005 RMK AO2 SLPNO T01091048
KFHU 140358Z AUTO 24009KT 10SM CLR 12/M05 A3006 RMK AO2 SLP149 T01201047
KFHU 140258Z AUTO 23009KT 10SM CLR 13/M04 A3005 RMK AO2 SLP146 T01271044 50004
KFHU 140158Z AUTO 25008KT 10SM CLR 13/M04 A3006 RMK AO2 SLP156 T01261041
KFHU 140058Z AUTO 22004KT 10SM CLR 13/M03 A3005 RMK AO2 SLP149 T01311029
KFHU 132358Z AUTO 18007KT 10SM CLR 17/M03 A3004 RMK AO2 SLP139 T01691027 10203 20150 56006
KFHU 132258Z AUTO 19008KT 10SM CLR 19/M03 A3004 RMK AO2 SLP135 T01881029
KFHU 132158Z AUTO 00000KT 10SM CLR 20/M03 A3005 RMK AO2 SLP135 T01981027
KFHU 132058Z AUTO 17003KT 10SM CLR 19/M03 A3006 RMK AO2 SLP139 T01891033 57028
KFHU 132024Z AUTO 00000KT 10SM CLR 18/M04 A3007 RMK AO2 SLP146
KFHU 131958Z AUTO 16003KT 10SM CLR 18/M04 A3009 RMK AO2 SLP153 T01761044
KFHU 131944Z AUTO 13006KT 10SM CLR 18/M04 A3009 RMK AO2 SLP153
KFHU 131913Z AUTO 10005KT 10SM CLR 18/M05 A3011 RMK AO2 PRESFR SLP160
KFHU 131858Z AUTO 12004KT 10SM CLR 17/M05 A3013 RMK AO2 SLP167 T01671052
KFHU 131828Z AUTO 10005KT 10SM CLR 16/M06 A3014 RMK AO2 SLP170